createdAt,value
2022-12-28T00:00:52.951Z,7.55
2022-12-28T00:01:56.386Z,7.60
2022-12-28T00:02:59.313Z,9.55
2022-12-28T00:04:05.956Z,9.60
2022-12-28T00:05:09.368Z,11.02
2022-12-28T00:06:13.514Z,10.30
2022-12-28T00:07:16.059Z,9.10
2022-12-28T00:08:19.459Z,8.25
2022-12-28T00:09:21.754Z,10.67
2022-12-28T00:11:07.716Z,9.90
2022-12-28T00:11:47.393Z,12.93
2022-12-28T00:12:50.710Z,10.20
2022-12-28T00:13:53.004Z,9.65
2022-12-28T00:14:56.528Z,12.43
2022-12-28T00:15:59.164Z,10.60
2022-12-28T00:17:02.964Z,10.00
2022-12-28T00:18:05.361Z,9.35
2022-12-28T00:19:14.251Z,11.27
2022-12-28T00:20:16.835Z,14.60
2022-12-28T00:21:20.268Z,9.00
2022-12-28T00:22:23.019Z,10.40
2022-12-28T00:23:26.877Z,9.82
2022-12-28T00:24:29.240Z,10.05
2022-12-28T00:25:32.622Z,7.78
2022-12-28T00:26:36.226Z,10.07
2022-12-28T00:27:40.023Z,14.85
2022-12-28T00:28:42.286Z,9.25
2022-12-28T00:29:46.018Z,8.63
2022-12-28T00:30:48.649Z,10.57
2022-12-28T00:31:52.057Z,10.68
2022-12-28T00:32:54.499Z,10.95
2022-12-28T00:33:57.963Z,9.55
2022-12-28T00:35:02.640Z,12.05
2022-12-28T00:36:05.449Z,10.75
2022-12-28T00:37:12.935Z,10.40
2022-12-28T00:38:15.788Z,10.82
2022-12-28T00:39:19.310Z,10.23
2022-12-28T00:40:24.261Z,9.00
2022-12-28T00:41:26.855Z,10.60
2022-12-28T00:42:30.346Z,10.18
2022-12-28T00:43:33.053Z,13.57
2022-12-28T00:44:36.424Z,11.80
2022-12-28T00:45:39.304Z,10.50
2022-12-28T00:46:42.920Z,11.75
2022-12-28T00:47:45.429Z,8.15
2022-12-28T00:48:48.874Z,9.32
2022-12-28T00:49:51.230Z,11.65
2022-12-28T00:51:03.293Z,10.40
2022-12-28T00:52:05.846Z,8.23
2022-12-28T00:53:09.262Z,10.60
2022-12-28T00:54:11.640Z,12.05
2022-12-28T00:55:15.012Z,11.15
2022-12-28T00:56:19.223Z,12.48
2022-12-28T00:57:22.593Z,8.90
2022-12-28T00:58:24.869Z,7.88
2022-12-28T00:59:28.727Z,10.65
2022-12-28T01:00:32.039Z,9.35
2022-12-28T01:01:35.690Z,15.82
2022-12-28T01:02:38.426Z,9.57
2022-12-28T01:03:41.908Z,9.75
2022-12-28T01:04:44.258Z,10.25
2022-12-28T01:05:47.631Z,12.35
2022-12-28T01:06:51.530Z,9.18
2022-12-28T01:07:54.956Z,9.85
2022-12-28T01:08:57.247Z,9.15
2022-12-28T01:10:00.677Z,9.18
2022-12-28T01:11:08.424Z,8.05
2022-12-28T01:12:11.862Z,10.05
2022-12-28T01:13:14.495Z,10.67
2022-12-28T01:14:17.955Z,11.30
2022-12-28T01:15:20.768Z,10.50
2022-12-28T01:16:26.672Z,9.48
2022-12-28T01:17:30.062Z,8.75
2022-12-28T01:18:33.390Z,13.73
2022-12-28T01:19:36.533Z,12.60
2022-12-28T01:20:40.990Z,9.38
2022-12-28T01:21:43.231Z,9.57
2022-12-28T01:22:48.042Z,11.65
2022-12-28T01:23:53.552Z,12.00
2022-12-28T01:24:56.916Z,8.93
2022-12-28T01:26:02.181Z,8.52
2022-12-28T01:27:05.683Z,8.75
2022-12-28T01:28:08.127Z,6.65
2022-12-28T01:29:11.602Z,12.07
2022-12-28T01:30:14.729Z,8.70
2022-12-28T01:31:20.308Z,7.00
2022-12-28T01:32:22.790Z,8.57
2022-12-28T01:33:26.142Z,7.93
2022-12-28T01:34:28.449Z,8.33
2022-12-28T01:35:31.823Z,8.70
2022-12-28T01:36:35.171Z,10.98
2022-12-28T01:37:38.400Z,6.72
2022-12-28T01:38:42.932Z,9.10
2022-12-28T01:39:46.213Z,7.32
2022-12-28T01:40:48.616Z,8.63
2022-12-28T01:41:52.045Z,8.55
2022-12-28T01:42:54.355Z,7.80
2022-12-28T01:44:35.009Z,10.30
2022-12-28T01:45:37.480Z,7.00
2022-12-28T01:46:43.900Z,8.85
2022-12-28T01:47:49.558Z,8.38
2022-12-28T01:48:57.741Z,7.22
2022-12-28T01:50:07.128Z,7.95
2022-12-28T01:51:09.432Z,8.18
2022-12-28T01:52:16.803Z,8.55
2022-12-28T01:53:20.905Z,8.50
2022-12-28T01:54:28.468Z,7.22
2022-12-28T01:55:33.762Z,9.50
2022-12-28T01:56:38.058Z,7.83
2022-12-28T01:57:43.829Z,9.95
2022-12-28T01:58:48.103Z,8.45
2022-12-28T01:59:54.906Z,7.38
2022-12-28T02:00:58.890Z,8.13
2022-12-28T02:02:01.728Z,9.40
2022-12-28T02:03:09.056Z,7.85
2022-12-28T02:04:12.079Z,11.77
2022-12-28T02:05:16.864Z,11.52
2022-12-28T02:06:20.438Z,9.60
2022-12-28T02:07:37.425Z,6.57
2022-12-28T02:08:44.072Z,6.70
2022-12-28T02:10:44.412Z,11.60
2022-12-28T02:11:16.247Z,7.75
2022-12-28T02:12:19.802Z,9.95
2022-12-28T02:13:25.139Z,7.65
2022-12-28T02:14:27.749Z,8.93
2022-12-28T02:15:31.290Z,11.45
2022-12-28T02:16:33.902Z,9.52
2022-12-28T02:17:37.627Z,10.50
2022-12-28T02:18:42.985Z,10.50
2022-12-28T02:19:50.393Z,7.90
2022-12-28T02:21:17.739Z,7.82
2022-12-28T02:22:50.338Z,7.30
2022-12-28T02:24:28.966Z,9.45
2022-12-28T02:26:05.020Z,7.45
2022-12-28T02:27:19.594Z,7.60
2022-12-28T02:28:46.009Z,9.32
2022-12-28T02:30:08.973Z,13.68
2022-12-28T02:31:18.007Z,7.88
2022-12-28T02:32:35.198Z,7.03
2022-12-28T02:33:44.615Z,7.60
2022-12-28T02:34:54.742Z,8.20
2022-12-28T02:36:01.296Z,6.97
2022-12-28T02:37:11.777Z,8.60
2022-12-28T02:38:19.866Z,8.05
2022-12-28T02:39:27.510Z,5.32
2022-12-28T02:40:35.757Z,7.90
2022-12-28T02:41:41.408Z,8.38
2022-12-28T02:42:46.717Z,8.57
2022-12-28T02:43:50.767Z,8.07
2022-12-28T02:45:13.059Z,6.22
2022-12-28T02:46:38.695Z,6.65
2022-12-28T02:48:02.056Z,9.80
2022-12-28T02:49:51.520Z,6.82
2022-12-28T02:51:07.050Z,8.88
2022-12-28T02:52:18.703Z,6.50
2022-12-28T02:53:38.695Z,7.25
2022-12-28T02:55:27.937Z,6.60
2022-12-28T02:56:40.515Z,6.70
2022-12-28T02:58:01.640Z,8.63
2022-12-28T02:59:24.250Z,6.15
2022-12-28T03:00:35.325Z,9.40
2022-12-28T03:02:08.925Z,5.88
2022-12-28T03:03:21.861Z,7.63
2022-12-28T03:04:31.028Z,8.20
2022-12-28T03:05:57.998Z,7.22
2022-12-28T03:07:28.101Z,6.88
2022-12-28T03:08:38.717Z,8.27
2022-12-28T03:09:48.135Z,7.70
2022-12-28T03:10:56.417Z,5.50
2022-12-28T03:12:07.617Z,5.32
2022-12-28T03:13:28.708Z,6.20
2022-12-28T03:14:37.610Z,8.23
2022-12-28T03:15:41.585Z,6.88
2022-12-28T03:17:08.823Z,6.13
2022-12-28T03:18:33.956Z,4.85
2022-12-28T03:19:58.399Z,10.82
2022-12-28T03:21:23.654Z,5.18
2022-12-28T03:22:49.157Z,6.43
2022-12-28T03:24:11.529Z,5.37
2022-12-28T03:25:37.869Z,8.32
2022-12-28T03:27:03.817Z,5.05
2022-12-28T03:28:27.830Z,4.55
2022-12-28T03:29:53.085Z,6.10
2022-12-28T03:31:06.936Z,4.18
2022-12-28T03:32:10.308Z,8.20
2022-12-28T03:33:14.541Z,5.57
2022-12-28T03:34:17.622Z,7.43
2022-12-28T03:35:24.883Z,4.85
2022-12-28T03:36:32.138Z,6.03
2022-12-28T03:37:42.173Z,5.05
2022-12-28T03:38:53.420Z,8.18
2022-12-28T03:40:01.696Z,5.75
2022-12-28T03:41:08.304Z,5.43
2022-12-28T03:42:34.906Z,7.80
2022-12-28T03:43:47.214Z,5.20
2022-12-28T03:44:56.842Z,5.63
2022-12-28T03:46:06.091Z,4.63
2022-12-28T03:47:11.465Z,5.80
2022-12-28T03:48:16.528Z,5.43
2022-12-28T03:49:19.547Z,5.22
2022-12-28T03:50:24.375Z,6.55
2022-12-28T03:51:31.247Z,9.10
2022-12-28T03:52:34.941Z,9.60
2022-12-28T03:53:41.487Z,9.25
2022-12-28T03:54:45.755Z,5.15
2022-12-28T03:55:48.187Z,6.38
2022-12-28T03:56:53.361Z,10.15
2022-12-28T03:57:56.872Z,6.95
2022-12-28T03:59:00.541Z,6.60
2022-12-28T04:00:04.095Z,10.65
2022-12-28T04:01:09.306Z,6.03
2022-12-28T04:02:12.068Z,5.15
2022-12-28T04:03:15.715Z,8.82
2022-12-28T04:04:18.383Z,5.28
2022-12-28T04:05:22.294Z,6.35
2022-12-28T04:06:24.815Z,8.50
2022-12-28T04:07:29.487Z,7.50
2022-12-28T04:08:32.972Z,6.88
2022-12-28T04:09:36.237Z,7.93
2022-12-28T04:10:38.978Z,6.47
2022-12-28T04:11:42.808Z,6.15
2022-12-28T04:12:45.543Z,7.88
2022-12-28T04:13:49.067Z,7.65
2022-12-28T04:14:51.459Z,6.07
2022-12-28T04:15:59.879Z,7.03
2022-12-28T04:17:03.664Z,6.70
2022-12-28T04:18:07.001Z,4.72
2022-12-28T04:19:10.520Z,7.35
2022-12-28T04:20:14.098Z,6.17
2022-12-28T04:21:16.674Z,7.55
2022-12-28T04:22:19.962Z,6.45
2022-12-28T04:23:22.417Z,6.40
2022-12-28T04:24:26.914Z,8.27
2022-12-28T04:25:29.280Z,9.23
2022-12-28T04:26:32.734Z,6.53
2022-12-28T04:27:35.560Z,7.50
2022-12-28T04:28:39.511Z,6.80
2022-12-28T04:29:41.827Z,7.13
2022-12-28T04:30:46.721Z,5.17
2022-12-28T04:31:50.116Z,7.32
2022-12-28T04:32:55.759Z,7.75
2022-12-28T04:33:59.509Z,5.28
2022-12-28T04:35:02.002Z,6.88
2022-12-28T04:36:07.124Z,6.65
2022-12-28T04:37:09.531Z,6.47
2022-12-28T04:38:12.950Z,6.82
2022-12-28T04:39:15.261Z,6.72
2022-12-28T04:40:18.719Z,8.32
2022-12-28T04:41:21.178Z,5.83
2022-12-28T04:42:25.399Z,6.38
2022-12-28T04:43:27.851Z,6.57
2022-12-28T04:44:32.407Z,4.07
2022-12-28T04:45:35.195Z,7.88
2022-12-28T04:46:39.076Z,7.60
2022-12-28T04:47:41.635Z,7.97
2022-12-28T04:48:46.558Z,6.10
2022-12-28T04:49:48.985Z,5.70
2022-12-28T04:50:52.783Z,5.30
2022-12-28T04:51:55.453Z,4.23
2022-12-28T04:53:00.494Z,5.57
2022-12-28T04:54:03.465Z,4.97
2022-12-28T04:55:07.381Z,5.32
2022-12-28T04:56:30.848Z,4.30
2022-12-28T04:57:33.481Z,5.80
2022-12-28T04:58:37.602Z,6.20
2022-12-28T04:59:40.636Z,6.28
2022-12-28T05:00:44.191Z,8.85
2022-12-28T05:01:46.818Z,8.63
2022-12-28T05:02:50.294Z,9.43
2022-12-28T05:03:58.063Z,8.05
2022-12-28T05:05:03.320Z,4.95
2022-12-28T05:06:08.403Z,7.72
2022-12-28T05:07:11.930Z,3.80
2022-12-28T05:08:14.307Z,7.78
2022-12-28T05:09:19.550Z,5.57
2022-12-28T05:10:22.245Z,4.50
2022-12-28T05:11:27.722Z,5.38
2022-12-28T05:12:30.095Z,6.18
2022-12-28T05:13:33.868Z,7.30
2022-12-28T05:14:37.384Z,6.68
2022-12-28T05:15:40.933Z,5.82
2022-12-28T05:16:43.494Z,5.80
2022-12-28T05:17:48.724Z,6.03
2022-12-28T05:18:51.255Z,6.30
2022-12-28T05:19:56.397Z,6.00
2022-12-28T05:21:00.662Z,6.22
2022-12-28T05:22:04.478Z,9.18
2022-12-28T05:23:07.263Z,5.75
2022-12-28T05:24:10.953Z,8.00
2022-12-28T05:25:13.293Z,6.32
2022-12-28T05:26:19.072Z,5.00
2022-12-28T05:27:21.509Z,7.95
2022-12-28T05:28:25.743Z,5.53
2022-12-28T05:29:28.220Z,4.70
2022-12-28T05:30:31.954Z,5.68
2022-12-28T05:31:34.367Z,5.47
2022-12-28T05:32:37.805Z,3.75
2022-12-28T05:33:40.498Z,7.40
2022-12-28T05:34:43.963Z,4.93
2022-12-28T05:35:47.870Z,3.85
2022-12-28T05:36:51.340Z,5.15
2022-12-28T05:37:53.690Z,5.70
2022-12-28T05:38:58.129Z,5.70
2022-12-28T05:40:01.836Z,6.38
2022-12-28T05:41:07.199Z,3.97
2022-12-28T05:42:09.612Z,5.03
2022-12-28T05:43:13.056Z,4.55
2022-12-28T05:44:16.777Z,4.85
2022-12-28T05:45:19.408Z,5.20
2022-12-28T05:46:25.629Z,4.88
2022-12-28T05:47:29.374Z,3.88
2022-12-28T05:48:33.010Z,5.38
2022-12-28T05:49:36.572Z,7.18
2022-12-28T05:50:39.178Z,5.38
2022-12-28T05:51:44.265Z,6.22
2022-12-28T05:52:47.129Z,4.13
2022-12-28T05:53:50.807Z,5.63
2022-12-28T05:54:53.355Z,5.05
2022-12-28T05:56:02.167Z,5.63
2022-12-28T05:57:05.989Z,7.10
2022-12-28T05:58:09.710Z,7.70
2022-12-28T05:59:14.575Z,4.43
2022-12-28T06:00:17.641Z,4.80
2022-12-28T06:01:25.331Z,4.70
2022-12-28T06:02:29.253Z,4.07
2022-12-28T06:03:31.964Z,5.00
2022-12-28T06:04:35.719Z,5.50
2022-12-28T06:05:38.046Z,4.28
2022-12-28T06:06:41.480Z,8.53
2022-12-28T06:07:45.265Z,5.45
2022-12-28T06:08:50.194Z,5.22
2022-12-28T06:09:53.521Z,6.03
2022-12-28T06:11:00.123Z,5.63
2022-12-28T06:12:04.914Z,7.65
2022-12-28T06:13:07.365Z,5.72
2022-12-28T06:14:11.101Z,9.68
2022-12-28T06:15:13.474Z,5.97
2022-12-28T06:16:18.907Z,8.60
2022-12-28T06:17:21.691Z,9.33
2022-12-28T06:18:25.457Z,5.30
2022-12-28T06:19:28.141Z,7.20
2022-12-28T06:20:31.717Z,4.72
2022-12-28T06:21:36.104Z,6.72
2022-12-28T06:22:39.605Z,4.55
2022-12-28T06:23:44.097Z,6.30
2022-12-28T06:24:47.596Z,4.10
2022-12-28T06:25:49.962Z,6.78
2022-12-28T06:26:53.449Z,6.07
2022-12-28T06:27:55.737Z,5.07
2022-12-28T06:28:59.516Z,6.13
2022-12-28T06:30:01.868Z,5.85
2022-12-28T06:31:06.828Z,7.13
2022-12-28T06:32:10.391Z,7.72
2022-12-28T06:33:13.191Z,6.70
2022-12-28T06:34:16.628Z,3.00
2022-12-28T06:35:19.359Z,5.05
2022-12-28T06:36:25.216Z,4.55
2022-12-28T06:37:27.672Z,5.80
2022-12-28T06:38:34.666Z,6.57
2022-12-28T06:39:38.413Z,6.38
2022-12-28T06:41:12.439Z,6.18
2022-12-28T06:42:06.004Z,5.90
2022-12-28T06:43:08.488Z,6.28
2022-12-28T06:44:14.246Z,5.07
2022-12-28T06:45:16.941Z,3.50
2022-12-28T06:46:22.667Z,6.07
2022-12-28T06:47:26.221Z,8.13
2022-12-28T06:48:30.357Z,10.70
2022-12-28T06:49:33.985Z,5.37
2022-12-28T06:50:40.082Z,7.65
2022-12-28T06:51:43.682Z,12.15
2022-12-28T06:52:46.238Z,4.30
2022-12-28T06:53:51.183Z,8.90
2022-12-28T06:54:55.071Z,6.60
2022-12-28T06:55:59.921Z,6.25
2022-12-28T06:57:02.351Z,6.25
2022-12-28T06:58:05.962Z,9.18
2022-12-28T06:59:08.593Z,8.18
2022-12-28T07:00:13.548Z,6.10
2022-12-28T07:01:18.158Z,4.70
2022-12-28T07:02:22.123Z,5.72
2022-12-28T07:03:25.421Z,4.72
2022-12-28T07:04:28.922Z,5.68
2022-12-28T07:05:32.301Z,6.35
2022-12-28T07:06:38.569Z,6.47
2022-12-28T07:07:40.939Z,8.32
2022-12-28T07:08:44.872Z,5.93
2022-12-28T07:09:48.335Z,5.20
2022-12-28T07:10:52.408Z,5.63
2022-12-28T07:11:55.830Z,6.57
2022-12-28T07:12:58.130Z,7.63
2022-12-28T07:14:01.640Z,6.32
2022-12-28T07:15:04.435Z,9.18
2022-12-28T07:16:11.305Z,6.15
2022-12-28T07:17:14.806Z,8.88
2022-12-28T07:18:17.193Z,6.18
2022-12-28T07:19:20.809Z,7.00
2022-12-28T07:20:23.554Z,5.53
2022-12-28T07:21:28.373Z,5.17
2022-12-28T07:22:30.878Z,8.68
2022-12-28T07:23:34.924Z,6.00
2022-12-28T07:24:39.446Z,8.60
2022-12-28T07:25:41.820Z,6.78
2022-12-28T07:26:46.596Z,6.30
2022-12-28T07:27:49.001Z,8.13
2022-12-28T07:28:54.730Z,5.85
2022-12-28T07:29:58.117Z,9.18
2022-12-28T07:31:06.082Z,5.53
2022-12-28T07:32:09.830Z,6.87
2022-12-28T07:33:12.346Z,5.15
2022-12-28T07:34:17.508Z,9.65
2022-12-28T07:35:19.855Z,5.50
2022-12-28T07:36:25.027Z,6.88
2022-12-28T07:37:28.552Z,6.40
2022-12-28T07:38:31.148Z,6.93
2022-12-28T07:39:35.325Z,7.72
2022-12-28T07:40:37.869Z,8.35
2022-12-28T07:41:41.280Z,7.75
2022-12-28T07:42:45.207Z,9.67
2022-12-28T07:43:49.323Z,13.77
2022-12-28T07:44:52.746Z,9.30
2022-12-28T07:46:01.924Z,9.27
2022-12-28T07:47:05.786Z,8.43
2022-12-28T07:48:08.192Z,13.02
2022-12-28T07:49:11.523Z,9.98
2022-12-28T07:50:13.863Z,12.82
2022-12-28T07:51:19.389Z,8.65
2022-12-28T07:52:23.012Z,10.25
2022-12-28T07:53:25.416Z,10.50
2022-12-28T07:54:28.909Z,7.40
2022-12-28T07:55:32.354Z,9.35
2022-12-28T07:57:37.970Z,7.93
2022-12-28T07:59:44.601Z,9.68
2022-12-28T08:00:48.028Z,11.20
2022-12-28T08:01:52.869Z,9.40
2022-12-28T08:02:56.407Z,6.40
2022-12-28T08:04:02.055Z,10.47
2022-12-28T08:05:05.038Z,8.45
2022-12-28T08:06:11.263Z,9.73
2022-12-28T08:07:14.706Z,8.32
2022-12-28T08:08:17.076Z,6.50
2022-12-28T08:09:20.456Z,9.48
2022-12-28T08:10:22.862Z,10.02
2022-12-28T08:11:27.797Z,6.65
2022-12-28T08:12:31.514Z,7.72
2022-12-28T08:13:35.650Z,6.38
2022-12-28T08:14:40.581Z,7.27
2022-12-28T08:15:43.175Z,6.88
2022-12-28T08:16:46.612Z,8.05
2022-12-28T08:17:48.930Z,10.02
2022-12-28T08:18:53.077Z,7.85
2022-12-28T08:19:55.727Z,11.57
2022-12-28T08:21:03.001Z,12.70
2022-12-28T08:22:06.722Z,7.78
2022-12-28T08:23:09.115Z,5.18
2022-12-28T08:24:15.574Z,8.35
2022-12-28T08:25:17.998Z,7.30
2022-12-28T08:26:24.928Z,6.03
2022-12-28T08:27:32.240Z,6.65
2022-12-28T08:28:38.461Z,8.45
2022-12-28T08:29:43.130Z,9.07
2022-12-28T08:30:45.480Z,6.57
2022-12-28T08:31:49.766Z,8.20
2022-12-28T08:32:52.146Z,9.43
2022-12-28T08:33:57.528Z,7.95
2022-12-28T08:34:59.842Z,7.97
2022-12-28T08:36:03.524Z,8.07
2022-12-28T08:37:07.162Z,10.38
2022-12-28T08:38:09.953Z,8.18
2022-12-28T08:39:14.710Z,10.30
2022-12-28T08:40:17.155Z,6.72
2022-12-28T08:41:22.614Z,8.70
2022-12-28T08:42:24.916Z,8.73
2022-12-28T08:43:29.310Z,9.88
2022-12-28T08:44:32.736Z,7.05
2022-12-28T08:45:36.628Z,9.13
2022-12-28T08:46:41.303Z,8.20
2022-12-28T08:47:43.726Z,9.45
2022-12-28T08:48:48.809Z,9.10
2022-12-28T08:49:52.200Z,8.48
2022-12-28T08:50:55.407Z,6.53
2022-12-28T08:51:59.298Z,6.20
2022-12-28T08:53:01.573Z,7.68
2022-12-28T08:54:05.352Z,8.18
2022-12-28T08:55:09.617Z,7.32
2022-12-28T08:56:14.083Z,7.10
2022-12-28T08:57:17.833Z,12.23
2022-12-28T08:58:20.233Z,6.35
2022-12-28T08:59:23.452Z,6.43
2022-12-28T09:00:25.921Z,7.20
2022-12-28T09:01:35.889Z,4.90
2022-12-28T09:02:42.911Z,5.22
2022-12-28T09:03:50.289Z,4.22
2022-12-28T09:04:53.760Z,10.75
2022-12-28T09:05:56.051Z,8.60
2022-12-28T09:06:59.396Z,9.63
2022-12-28T09:08:01.786Z,7.47
2022-12-28T09:09:07.428Z,11.45
2022-12-28T09:10:11.224Z,8.90
2022-12-28T09:11:14.283Z,8.07
2022-12-28T09:12:17.954Z,10.43
2022-12-28T09:13:20.437Z,10.18
2022-12-28T09:14:24.717Z,8.57
2022-12-28T09:15:27.507Z,9.93
2022-12-28T09:16:32.641Z,11.00
2022-12-28T09:17:35.225Z,14.30
2022-12-28T09:18:39.663Z,10.43
2022-12-28T09:19:43.203Z,9.38
2022-12-28T09:20:48.026Z,13.88
2022-12-28T09:21:54.015Z,9.43
2022-12-28T09:22:56.317Z,10.82
2022-12-28T09:24:00.137Z,7.53
2022-12-28T09:25:03.477Z,8.73
2022-12-28T09:26:09.106Z,8.93
2022-12-28T09:27:12.830Z,11.60
2022-12-28T09:28:15.477Z,13.07
2022-12-28T09:29:18.924Z,10.77
2022-12-28T09:30:22.491Z,10.95
2022-12-28T09:31:26.966Z,9.65
2022-12-28T09:32:32.143Z,8.55
2022-12-28T09:34:33.843Z,8.20
2022-12-28T09:35:17.224Z,10.13
2022-12-28T09:36:19.679Z,7.75
2022-12-28T09:37:23.127Z,8.05
2022-12-28T09:38:25.904Z,8.30
2022-12-28T09:39:30.087Z,9.05
2022-12-28T09:40:34.951Z,8.70
2022-12-28T09:41:43.713Z,9.05
2022-12-28T09:42:46.106Z,10.52
2022-12-28T09:43:50.815Z,8.20
2022-12-28T09:45:00.641Z,6.07
2022-12-28T09:46:03.591Z,13.18
2022-12-28T09:47:17.531Z,9.00
2022-12-28T09:48:26.818Z,9.30
2022-12-28T09:49:40.002Z,10.40
2022-12-28T09:50:45.296Z,7.70
2022-12-28T09:51:53.292Z,8.53
2022-12-28T09:53:12.775Z,6.80
2022-12-28T09:54:16.151Z,9.82
2022-12-28T09:55:20.852Z,10.55
2022-12-28T09:56:28.913Z,8.55
2022-12-28T09:57:39.017Z,11.05
2022-12-28T09:58:47.915Z,11.10
2022-12-28T09:59:54.755Z,8.25
2022-12-28T10:01:00.531Z,11.75
2022-12-28T10:02:05.966Z,11.98
2022-12-28T10:03:17.076Z,12.17
2022-12-28T10:04:21.952Z,9.00
2022-12-28T10:05:28.083Z,12.85
2022-12-28T10:06:36.963Z,11.38
2022-12-28T10:07:39.472Z,9.88
2022-12-28T10:08:46.502Z,9.27
2022-12-28T10:09:50.133Z,9.85
2022-12-28T10:10:54.269Z,11.00
2022-12-28T10:11:57.788Z,15.55
2022-12-28T10:13:45.573Z,11.00
2022-12-28T10:14:38.515Z,10.07
2022-12-28T10:15:41.345Z,13.70
2022-12-28T10:16:48.621Z,11.90
2022-12-28T10:17:51.631Z,10.90
2022-12-28T10:18:55.668Z,10.95
2022-12-28T10:20:00.977Z,11.55
2022-12-28T10:21:03.381Z,11.35
2022-12-28T10:22:09.801Z,12.90
2022-12-28T10:23:18.084Z,12.98
2022-12-28T10:24:31.397Z,13.90
2022-12-28T10:25:35.069Z,10.07
2022-12-28T10:26:39.525Z,12.25
2022-12-28T10:27:42.997Z,10.13
2022-12-28T10:28:49.568Z,10.43
2022-12-28T10:29:52.907Z,10.80
2022-12-28T10:31:06.571Z,13.40
2022-12-28T10:32:12.723Z,10.15
2022-12-28T10:33:20.970Z,11.60
2022-12-28T10:34:24.559Z,15.77
2022-12-28T10:35:33.338Z,10.60
2022-12-28T10:36:36.768Z,13.23
2022-12-28T10:37:44.910Z,10.45
2022-12-28T10:38:53.418Z,11.70
2022-12-28T10:39:59.100Z,15.45
2022-12-28T10:41:05.254Z,14.38
2022-12-28T10:42:22.944Z,15.55
2022-12-28T10:43:30.493Z,15.90
2022-12-28T10:44:40.440Z,16.10
2022-12-28T10:46:01.219Z,11.60
2022-12-28T10:47:06.848Z,14.93
2022-12-28T10:48:16.441Z,14.03
2022-12-28T10:49:21.721Z,12.55
2022-12-28T10:50:57.827Z,15.27
2022-12-28T10:52:03.712Z,14.38
2022-12-28T10:53:16.864Z,15.63
2022-12-28T10:54:27.676Z,14.80
2022-12-28T10:55:34.224Z,14.95
2022-12-28T10:56:49.632Z,17.25
2022-12-28T10:58:27.512Z,16.60
2022-12-28T10:59:25.638Z,14.45
2022-12-28T11:00:29.378Z,18.27
2022-12-28T11:01:33.639Z,14.35
2022-12-28T11:02:36.608Z,18.42
2022-12-28T11:03:42.785Z,17.48
2022-12-28T11:04:54.116Z,15.07
2022-12-28T11:06:13.269Z,18.05
2022-12-28T11:07:29.022Z,16.95
2022-12-28T11:08:31.564Z,18.10
2022-12-28T11:09:36.704Z,15.18
2022-12-28T11:10:40.535Z,16.35
2022-12-28T11:11:45.680Z,15.40
2022-12-28T11:12:49.030Z,15.25
2022-12-28T11:13:57.070Z,17.17
2022-12-28T11:15:00.079Z,17.38
2022-12-28T11:16:08.052Z,16.50
2022-12-28T11:17:18.668Z,12.73
2022-12-28T11:18:21.677Z,18.30
2022-12-28T11:19:26.912Z,14.45
2022-12-28T11:20:34.279Z,16.23
2022-12-28T11:21:39.903Z,17.52
2022-12-28T11:22:42.410Z,16.53
2022-12-28T11:23:47.826Z,14.65
2022-12-28T11:24:50.711Z,13.02
2022-12-28T11:25:54.219Z,20.52
2022-12-28T11:26:58.960Z,16.50
2022-12-28T11:28:05.590Z,14.68
2022-12-28T11:29:12.206Z,16.75
2022-12-28T11:30:18.121Z,18.02
2022-12-28T11:31:29.193Z,17.17
2022-12-28T11:32:36.660Z,16.40
2022-12-28T11:33:43.390Z,17.77
2022-12-28T11:34:46.081Z,19.15
2022-12-28T11:35:52.557Z,15.15
2022-12-28T11:37:00.640Z,15.30
2022-12-28T11:38:05.788Z,15.98
2022-12-28T11:39:47.226Z,16.40
2022-12-28T11:40:52.467Z,17.67
2022-12-28T11:42:36.679Z,12.68
2022-12-28T11:43:40.323Z,20.65
2022-12-28T11:44:52.064Z,22.98
2022-12-28T11:45:56.274Z,13.10
2022-12-28T11:47:05.382Z,23.15
2022-12-28T11:48:42.182Z,20.20
2022-12-28T11:49:47.388Z,18.88
2022-12-28T11:50:52.183Z,17.65
2022-12-28T11:52:46.732Z,22.85
2022-12-28T11:54:00.100Z,16.40
2022-12-28T11:55:25.273Z,18.65
2022-12-28T11:56:50.506Z,23.92
2022-12-28T11:57:55.263Z,17.38
2022-12-28T11:59:23.598Z,18.87
2022-12-28T12:00:48.334Z,18.42
2022-12-28T12:01:54.142Z,20.20
2022-12-28T12:02:58.530Z,21.08
2022-12-28T12:04:39.189Z,20.42
2022-12-28T12:05:49.464Z,14.32
2022-12-28T12:07:15.913Z,16.38
2022-12-28T12:08:43.064Z,15.40
2022-12-28T12:09:49.047Z,18.60
2022-12-28T12:11:23.279Z,14.68
2022-12-28T12:12:37.507Z,21.97
2022-12-28T12:13:45.667Z,13.60
2022-12-28T12:14:50.908Z,20.88
2022-12-28T12:15:59.270Z,18.65
2022-12-28T12:17:05.824Z,14.57
2022-12-28T12:18:19.481Z,15.30
2022-12-28T12:19:27.058Z,16.02
2022-12-28T12:20:45.019Z,13.52
2022-12-28T12:22:00.381Z,17.38
2022-12-28T12:23:07.715Z,17.58
2022-12-28T12:24:26.812Z,13.73
2022-12-28T12:25:37.658Z,17.13
2022-12-28T12:26:47.716Z,17.83
2022-12-28T12:27:55.690Z,22.13
2022-12-28T12:29:05.422Z,22.05
2022-12-28T12:30:15.934Z,19.17
2022-12-28T12:31:29.856Z,19.60
2022-12-28T12:32:40.148Z,17.55
2022-12-28T12:33:48.755Z,18.05
2022-12-28T12:34:55.454Z,13.85
2022-12-28T12:36:06.286Z,15.23
2022-12-28T12:37:38.581Z,13.75
2022-12-28T12:38:58.309Z,12.00
2022-12-28T12:40:34.397Z,16.33
2022-12-28T12:41:50.659Z,13.38
2022-12-28T12:43:13.311Z,12.73
2022-12-28T12:44:24.259Z,14.55
2022-12-28T12:45:40.154Z,16.17
2022-12-28T12:47:09.970Z,17.83
2022-12-28T12:48:29.950Z,13.77
2022-12-28T12:49:57.365Z,15.43
2022-12-28T12:51:10.466Z,17.90
2022-12-28T12:52:27.396Z,17.33
2022-12-28T12:53:48.651Z,15.68
2022-12-28T12:55:06.250Z,15.52
2022-12-28T12:56:20.379Z,12.25
2022-12-28T12:57:36.720Z,17.50
2022-12-28T12:58:52.795Z,14.02
2022-12-28T13:00:15.074Z,12.98
2022-12-28T13:01:30.993Z,14.77
2022-12-28T13:02:59.899Z,9.20
2022-12-28T13:04:08.915Z,13.30
2022-12-28T13:05:17.574Z,14.57
2022-12-28T13:06:24.631Z,21.95
2022-12-28T13:07:28.565Z,21.27
2022-12-28T13:08:38.580Z,16.98
2022-12-28T13:09:43.673Z,23.60
2022-12-28T13:10:47.106Z,16.52
2022-12-28T13:11:51.071Z,18.23
2022-12-28T13:12:59.388Z,18.63
2022-12-28T13:14:02.943Z,16.63
2022-12-28T13:15:12.477Z,14.60
2022-12-28T13:16:19.080Z,11.30
2022-12-28T13:17:23.282Z,9.77
2022-12-28T13:19:50.686Z,16.17
2022-12-28T13:20:55.102Z,10.45
2022-12-28T13:21:59.322Z,9.98
2022-12-28T13:23:01.976Z,11.05
2022-12-28T13:24:06.138Z,10.43
2022-12-28T13:25:24.226Z,16.33
2022-12-28T13:26:30.565Z,12.38
2022-12-28T13:27:37.029Z,12.55
2022-12-28T13:28:51.471Z,13.65
2022-12-28T13:29:55.502Z,12.38
2022-12-28T13:31:11.103Z,12.52
2022-12-28T13:32:26.437Z,12.32
2022-12-28T13:33:30.760Z,11.02
2022-12-28T13:34:36.170Z,8.98
2022-12-28T13:35:38.972Z,10.70
2022-12-28T13:36:49.786Z,11.07
2022-12-28T13:38:04.130Z,11.15
2022-12-28T13:39:13.513Z,9.10
2022-12-28T13:40:19.297Z,9.40
2022-12-28T13:41:26.385Z,10.35
2022-12-28T13:42:36.763Z,11.70
2022-12-28T13:44:09.503Z,10.32
2022-12-28T13:45:16.764Z,6.75
2022-12-28T13:46:21.743Z,12.80
2022-12-28T13:47:29.437Z,11.15
2022-12-28T13:48:32.295Z,15.00
2022-12-28T13:49:40.652Z,9.27
2022-12-28T13:50:44.474Z,12.60
2022-12-28T13:51:53.080Z,11.55
2022-12-28T13:53:00.993Z,12.85
2022-12-28T13:54:03.880Z,8.50
2022-12-28T13:55:12.170Z,9.70
2022-12-28T13:56:18.144Z,11.80
2022-12-28T13:58:52.394Z,12.80
2022-12-28T13:59:57.388Z,11.07
2022-12-28T14:01:02.305Z,9.73
2022-12-28T14:02:06.489Z,8.57
2022-12-28T14:03:12.845Z,13.73
2022-12-28T14:04:51.670Z,10.60
2022-12-28T14:05:45.162Z,10.30
2022-12-28T14:06:47.857Z,15.77
2022-12-28T14:07:53.638Z,13.70
2022-12-28T14:09:02.248Z,10.75
2022-12-28T14:10:11.721Z,11.15
2022-12-28T14:11:14.641Z,14.73
2022-12-28T14:12:19.164Z,11.38
2022-12-28T14:13:22.287Z,10.73
2022-12-28T14:14:27.744Z,16.65
2022-12-28T14:15:39.002Z,9.57
2022-12-28T14:16:45.018Z,14.30
2022-12-28T14:17:49.644Z,8.90
2022-12-28T14:18:52.736Z,14.32
2022-12-28T14:19:58.667Z,9.68
2022-12-28T14:21:04.198Z,10.93
2022-12-28T14:22:31.698Z,11.60
2022-12-28T14:23:35.791Z,15.75
2022-12-28T14:25:03.642Z,10.57
2022-12-28T14:26:09.760Z,14.68
2022-12-28T14:27:18.124Z,14.30
2022-12-28T14:28:29.045Z,13.02
2022-12-28T14:29:36.050Z,9.70
2022-12-28T14:30:41.981Z,8.15
2022-12-28T14:31:46.020Z,14.38
2022-12-28T14:32:48.549Z,12.23
2022-12-28T14:33:54.381Z,10.50
2022-12-28T14:34:59.785Z,14.55
2022-12-28T14:36:04.683Z,13.13
2022-12-28T14:37:10.275Z,8.30
2022-12-28T14:38:19.072Z,8.80
2022-12-28T14:39:29.213Z,9.70
2022-12-28T14:40:35.333Z,15.32
2022-12-28T14:41:42.649Z,13.95
2022-12-28T14:42:51.798Z,13.88
2022-12-28T14:43:56.993Z,10.77
2022-12-28T14:46:07.486Z,12.47
2022-12-28T14:47:01.610Z,15.13
2022-12-28T14:48:19.057Z,15.23
2022-12-28T14:49:37.139Z,12.38